createdAt,value
2023-02-09T00:02:08.449Z,-3.70
2023-02-09T00:04:55.072Z,-3.50
2023-02-09T00:07:40.965Z,-3.50
2023-02-09T00:10:26.828Z,-3.40
2023-02-09T00:13:24.738Z,-3.40
2023-02-09T00:16:11.083Z,-3.40
2023-02-09T00:18:57.541Z,-3.30
2023-02-09T00:21:43.448Z,-3.30
2023-02-09T00:24:29.584Z,-3.30
2023-02-09T00:27:15.664Z,-3.30
2023-02-09T00:30:01.938Z,-3.40
2023-02-09T00:32:48.257Z,-3.40
2023-02-09T00:35:34.636Z,-3.40
2023-02-09T00:38:20.609Z,-3.40
2023-02-09T00:41:07.924Z,-3.60
2023-02-09T00:43:54.153Z,-3.80
2023-02-09T00:46:41.115Z,-3.90
2023-02-09T00:49:27.803Z,-4.20
2023-02-09T00:52:13.911Z,-4.30
2023-02-09T00:54:59.844Z,-4.50
2023-02-09T00:57:45.770Z,-4.60
2023-02-09T01:00:31.704Z,-4.70
2023-02-09T01:03:17.704Z,-4.80
2023-02-09T01:06:03.714Z,-5.00
2023-02-09T01:08:50.910Z,-5.10
2023-02-09T01:11:37.070Z,-5.10
2023-02-09T01:14:23.211Z,-5.00
2023-02-09T01:17:10.008Z,-4.90
2023-02-09T01:19:56.508Z,-4.80
2023-02-09T01:22:42.730Z,-4.70
2023-02-09T01:25:28.984Z,-4.60
2023-02-09T01:28:15.159Z,-4.50
2023-02-09T01:31:01.690Z,-4.30
2023-02-09T01:33:48.206Z,-4.20
2023-02-09T01:36:34.611Z,-4.10
2023-02-09T01:39:20.375Z,-4.00
2023-02-09T01:42:06.346Z,-4.00
2023-02-09T01:45:06.410Z,-3.90
2023-02-09T01:48:00.643Z,-3.90
2023-02-09T01:50:51.857Z,-4.00
2023-02-09T01:53:38.284Z,-4.10
2023-02-09T01:56:29.714Z,-4.10
2023-02-09T01:59:17.165Z,-4.00
2023-02-09T02:02:05.147Z,-4.00
2023-02-09T02:04:51.891Z,-4.00
2023-02-09T02:07:52.088Z,-4.00
2023-02-09T02:10:38.010Z,-4.00
2023-02-09T02:13:24.040Z,-4.10
2023-02-09T02:16:12.917Z,-4.10
2023-02-09T02:19:29.388Z,-4.30
2023-02-09T02:22:26.343Z,-4.50
2023-02-09T02:25:48.325Z,-4.50
2023-02-09T02:28:40.412Z,-4.40
2023-02-09T02:31:52.463Z,-4.40
2023-02-09T02:34:47.269Z,-4.50
2023-02-09T02:37:48.249Z,-4.50
2023-02-09T02:40:34.504Z,-4.70
2023-02-09T02:43:43.330Z,-4.70
2023-02-09T02:46:32.529Z,-4.70
2023-02-09T02:49:26.160Z,-4.60
2023-02-09T02:52:12.325Z,-4.70
2023-02-09T02:55:05.548Z,-4.70
2023-02-09T02:57:55.640Z,-4.70
2023-02-09T03:00:48.358Z,-4.70
2023-02-09T03:03:36.446Z,-4.60
2023-02-09T03:06:22.599Z,-4.60
2023-02-09T03:09:09.213Z,-4.60
2023-02-09T03:12:00.588Z,-4.70
2023-02-09T03:15:27.841Z,-4.70
2023-02-09T03:18:41.175Z,-4.70
2023-02-09T03:22:01.299Z,-4.70
2023-02-09T03:25:08.287Z,-4.80
2023-02-09T03:27:57.435Z,-4.90
2023-02-09T03:30:49.741Z,-4.90
2023-02-09T03:33:38.649Z,-4.90
2023-02-09T03:36:31.581Z,-4.80
2023-02-09T03:39:17.591Z,-4.90
2023-02-09T03:42:03.713Z,-5.00
2023-02-09T03:44:49.892Z,-5.00
2023-02-09T03:47:36.038Z,-5.10
2023-02-09T03:50:21.992Z,-5.30
2023-02-09T03:53:08.033Z,-5.30
2023-02-09T03:55:53.929Z,-5.10
2023-02-09T03:58:39.948Z,-4.90
2023-02-09T04:01:25.943Z,-4.90
2023-02-09T04:04:12.090Z,-5.00
2023-02-09T04:06:58.302Z,-5.00
2023-02-09T04:09:44.650Z,-5.10
2023-02-09T04:12:30.642Z,-5.10
2023-02-09T04:15:16.700Z,-5.20
2023-02-09T04:18:02.656Z,-5.20
2023-02-09T04:20:48.722Z,-5.10
2023-02-09T04:23:34.820Z,-5.10
2023-02-09T04:26:20.925Z,-5.20
2023-02-09T04:29:07.138Z,-5.10
2023-02-09T04:31:53.301Z,-5.10
2023-02-09T04:34:39.589Z,-5.10
2023-02-09T04:37:25.640Z,-5.20
2023-02-09T04:40:12.773Z,-5.20
2023-02-09T04:42:58.821Z,-5.30
2023-02-09T04:45:44.932Z,-5.50
2023-02-09T04:48:31.032Z,-5.70
2023-02-09T04:51:17.361Z,-5.90
2023-02-09T04:54:03.452Z,-6.00
2023-02-09T04:57:09.813Z,-6.10
2023-02-09T04:59:56.045Z,-6.00
2023-02-09T05:02:41.993Z,-5.90
2023-02-09T05:05:28.096Z,-5.80
2023-02-09T05:08:14.084Z,-5.70
2023-02-09T05:11:00.541Z,-5.60
2023-02-09T05:13:46.724Z,-5.50
2023-02-09T05:16:32.758Z,-5.40
2023-02-09T05:19:19.297Z,-5.40
2023-02-09T05:22:05.204Z,-5.40
2023-02-09T05:24:51.062Z,-5.40
2023-02-09T05:27:36.981Z,-5.50
2023-02-09T05:30:23.119Z,-5.60
2023-02-09T05:33:10.284Z,-5.60
2023-02-09T05:35:56.569Z,-5.60
2023-02-09T05:38:42.489Z,-5.70
2023-02-09T05:41:47.116Z,-5.60
2023-02-09T05:44:33.385Z,-5.60
2023-02-09T05:47:21.680Z,-5.60
2023-02-09T05:50:07.836Z,-5.80
2023-02-09T05:52:54.210Z,-6.00
2023-02-09T05:55:40.368Z,-6.10
2023-02-09T05:58:26.519Z,-6.20
2023-02-09T06:01:12.740Z,-6.20
2023-02-09T06:03:59.000Z,-6.10
2023-02-09T06:06:45.169Z,-6.00
2023-02-09T06:09:31.567Z,-6.00
2023-02-09T06:12:17.818Z,-6.10
2023-02-09T06:15:04.256Z,-6.00
2023-02-09T06:17:50.432Z,-5.80
2023-02-09T06:20:36.393Z,-5.70
2023-02-09T06:23:22.434Z,-5.60
2023-02-09T06:26:10.363Z,-5.60
2023-02-09T06:28:56.300Z,-5.70
2023-02-09T06:31:42.616Z,-5.80
2023-02-09T06:34:29.225Z,-5.90
2023-02-09T06:37:15.377Z,-5.80
2023-02-09T06:40:02.015Z,-5.60
2023-02-09T06:42:48.121Z,-5.50
2023-02-09T06:45:34.165Z,-5.60
2023-02-09T06:48:20.566Z,-5.50
2023-02-09T06:51:11.681Z,-5.50
2023-02-09T06:53:58.182Z,-5.50
2023-02-09T06:56:44.265Z,-5.40
2023-02-09T06:59:30.707Z,-5.20
2023-02-09T07:02:16.738Z,-5.20
2023-02-09T07:05:02.703Z,-5.10
2023-02-09T07:07:48.794Z,-5.10
2023-02-09T07:10:34.658Z,-5.00
2023-02-09T07:13:20.641Z,-4.90
2023-02-09T07:16:09.078Z,-4.80
2023-02-09T07:18:55.383Z,-4.90
2023-02-09T07:21:41.479Z,-4.90
2023-02-09T07:24:27.608Z,-4.80
2023-02-09T07:27:13.662Z,-4.80
2023-02-09T07:30:01.053Z,-4.70
2023-02-09T07:32:47.744Z,-4.20
2023-02-09T07:35:34.603Z,-3.20
2023-02-09T07:38:20.890Z,-2.20
2023-02-09T07:41:11.391Z,-1.40
2023-02-09T07:43:58.132Z,-0.70
2023-02-09T07:46:44.286Z,-0.40
2023-02-09T07:49:30.322Z,-0.40
2023-02-09T07:52:16.352Z,-0.50
2023-02-09T07:55:02.525Z,-0.40
2023-02-09T07:57:48.795Z,-0.50
2023-02-09T08:00:35.249Z,-0.70
2023-02-09T08:03:23.894Z,-1.10
2023-02-09T08:06:25.995Z,-1.50
2023-02-09T08:09:16.965Z,-1.80
2023-02-09T08:12:06.026Z,-1.80
2023-02-09T08:14:52.748Z,-1.60
2023-02-09T08:17:38.919Z,-1.20
2023-02-09T08:20:27.752Z,-0.80
2023-02-09T08:23:19.194Z,-0.10
2023-02-09T08:26:09.959Z,0.50
2023-02-09T08:28:56.954Z,1.00
2023-02-09T08:31:43.728Z,1.60
2023-02-09T08:34:30.270Z,1.80
2023-02-09T08:37:16.143Z,1.90
2023-02-09T08:40:02.240Z,2.10
2023-02-09T08:42:48.217Z,2.30
2023-02-09T08:45:37.006Z,2.90
2023-02-09T08:48:23.815Z,3.30
2023-02-09T08:51:11.604Z,3.80
2023-02-09T08:53:57.768Z,3.80
2023-02-09T08:56:44.398Z,3.60
2023-02-09T08:59:30.586Z,3.60
2023-02-09T09:02:17.005Z,3.70
2023-02-09T09:05:03.375Z,3.40
2023-02-09T09:07:49.341Z,3.40
2023-02-09T09:10:35.385Z,3.30
2023-02-09T09:13:21.990Z,3.70
2023-02-09T09:16:14.671Z,4.30
2023-02-09T09:19:01.219Z,4.60
2023-02-09T09:21:47.579Z,4.60
2023-02-09T09:24:40.381Z,4.80
2023-02-09T09:27:27.111Z,4.70
2023-02-09T09:30:13.484Z,4.80
2023-02-09T09:33:00.027Z,4.80
2023-02-09T09:35:46.610Z,5.00
2023-02-09T09:38:35.143Z,5.30
2023-02-09T09:41:21.068Z,5.70
2023-02-09T09:44:15.378Z,6.10
2023-02-09T09:47:09.502Z,6.20
2023-02-09T09:49:55.867Z,6.10
2023-02-09T09:52:47.657Z,5.50
2023-02-09T09:55:34.444Z,5.20
2023-02-09T09:58:20.675Z,5.50
2023-02-09T10:01:14.702Z,6.10
2023-02-09T10:04:12.876Z,6.30
2023-02-09T10:07:12.973Z,6.50
2023-02-09T10:10:21.295Z,6.60
2023-02-09T10:13:32.348Z,6.60
2023-02-09T10:16:24.898Z,7.20
2023-02-09T10:19:19.275Z,7.60
2023-02-09T10:22:10.700Z,7.80
2023-02-09T10:24:59.378Z,7.40
2023-02-09T10:27:46.785Z,7.00
2023-02-09T10:30:33.406Z,7.60
2023-02-09T10:33:20.131Z,8.00
2023-02-09T10:36:18.868Z,8.30
2023-02-09T10:39:11.420Z,8.30
2023-02-09T10:42:13.680Z,8.00
2023-02-09T10:45:25.718Z,7.90
2023-02-09T10:48:11.809Z,8.30
2023-02-09T10:51:12.846Z,8.50
2023-02-09T10:54:07.427Z,8.20
2023-02-09T10:56:53.629Z,7.70
2023-02-09T10:59:41.633Z,8.10
2023-02-09T11:02:41.250Z,8.90
2023-02-09T11:05:30.442Z,9.30
2023-02-09T11:08:24.450Z,9.90
2023-02-09T11:11:24.890Z,10.00
2023-02-09T11:14:14.643Z,10.30
2023-02-09T11:17:40.159Z,10.30
2023-02-09T11:20:30.852Z,10.40
2023-02-09T11:23:49.644Z,10.40
2023-02-09T11:26:53.372Z,10.10
2023-02-09T11:30:18.223Z,10.80
2023-02-09T11:33:16.326Z,11.10
2023-02-09T11:36:15.629Z,11.50
2023-02-09T11:39:10.053Z,11.50
2023-02-09T11:42:22.000Z,11.20
2023-02-09T11:45:14.549Z,10.80
2023-02-09T11:48:19.048Z,10.70
2023-02-09T11:51:13.155Z,10.10
2023-02-09T11:54:31.188Z,9.70
2023-02-09T11:57:35.199Z,9.70
2023-02-09T12:00:26.872Z,10.40
2023-02-09T12:03:14.856Z,11.00
2023-02-09T12:06:02.133Z,11.20
2023-02-09T12:09:00.655Z,11.50
2023-02-09T12:12:07.212Z,11.00
2023-02-09T12:15:06.051Z,10.60
2023-02-09T12:18:03.208Z,11.30
2023-02-09T12:20:59.029Z,11.90
2023-02-09T12:23:46.882Z,12.10
2023-02-09T12:26:42.000Z,12.10
2023-02-09T12:29:41.725Z,11.80
2023-02-09T12:32:43.976Z,11.30
2023-02-09T12:35:39.745Z,10.50
2023-02-09T12:38:49.342Z,10.60
2023-02-09T12:41:42.629Z,11.20
2023-02-09T12:44:28.620Z,12.30
2023-02-09T12:47:47.376Z,12.60
2023-02-09T12:50:48.304Z,13.30
2023-02-09T12:53:44.389Z,14.50
2023-02-09T12:56:32.634Z,14.70
2023-02-09T12:59:24.010Z,14.90
2023-02-09T13:02:15.927Z,14.40
2023-02-09T13:05:20.759Z,14.00
2023-02-09T13:08:13.267Z,14.70
2023-02-09T13:10:59.604Z,15.30
2023-02-09T13:14:04.131Z,15.70
2023-02-09T13:17:22.650Z,16.50
2023-02-09T13:20:37.825Z,16.70
2023-02-09T13:23:41.063Z,16.80
2023-02-09T13:26:31.216Z,17.00
2023-02-09T13:29:22.225Z,16.80
2023-02-09T13:32:18.724Z,17.00
2023-02-09T13:35:19.132Z,17.00
2023-02-09T13:38:18.767Z,17.10
2023-02-09T13:41:07.610Z,17.20
2023-02-09T13:43:53.902Z,16.90
2023-02-09T13:46:39.770Z,17.10
2023-02-09T13:49:26.929Z,17.10
2023-02-09T13:52:21.125Z,17.00
2023-02-09T13:55:22.601Z,16.60
2023-02-09T13:58:17.899Z,16.30
2023-02-09T14:01:16.552Z,16.40
2023-02-09T14:04:14.891Z,16.50
2023-02-09T14:07:08.449Z,16.70
2023-02-09T14:10:17.057Z,16.80
2023-02-09T14:13:12.155Z,16.70
2023-02-09T14:16:09.329Z,16.90
2023-02-09T14:19:00.578Z,16.70
2023-02-09T14:21:47.152Z,16.30
2023-02-09T14:24:44.060Z,16.50
2023-02-09T14:27:33.065Z,16.10
2023-02-09T14:30:24.530Z,16.20
2023-02-09T14:33:24.904Z,16.00
2023-02-09T14:36:37.666Z,15.50
2023-02-09T14:39:24.515Z,15.50
2023-02-09T14:42:10.783Z,15.20
2023-02-09T14:45:18.194Z,15.10
2023-02-09T14:48:24.587Z,14.90
2023-02-09T14:51:14.745Z,15.20
2023-02-09T14:54:01.090Z,14.80
2023-02-09T14:56:47.352Z,14.70
2023-02-09T14:59:33.280Z,14.70
2023-02-09T15:02:23.339Z,13.80
2023-02-09T15:05:10.359Z,13.00
2023-02-09T15:08:03.142Z,12.50
2023-02-09T15:10:58.403Z,11.90
2023-02-09T15:13:44.481Z,11.40
2023-02-09T15:16:31.498Z,10.80
2023-02-09T15:19:21.309Z,10.10
2023-02-09T15:22:08.631Z,9.60
2023-02-09T15:24:54.898Z,9.20
2023-02-09T15:27:51.392Z,8.90
2023-02-09T15:30:37.986Z,8.60
2023-02-09T15:33:28.892Z,8.20
2023-02-09T15:36:18.835Z,8.00
2023-02-09T15:39:12.471Z,7.70
2023-02-09T15:42:17.130Z,7.60
2023-02-09T15:45:39.632Z,7.30
2023-02-09T15:48:26.036Z,7.10
2023-02-09T15:51:12.403Z,7.00
2023-02-09T15:54:01.487Z,6.90
2023-02-09T15:56:48.109Z,6.80
2023-02-09T15:59:34.257Z,6.90
2023-02-09T16:02:20.296Z,6.80
2023-02-09T16:05:06.690Z,6.70
2023-02-09T16:07:53.759Z,6.50
2023-02-09T16:10:39.923Z,6.40
2023-02-09T16:13:26.750Z,6.20
2023-02-09T16:16:17.464Z,5.90
2023-02-09T16:19:03.788Z,5.70
2023-02-09T16:21:54.076Z,5.50
2023-02-09T16:24:46.718Z,5.20
2023-02-09T16:27:32.881Z,5.20
2023-02-09T16:30:22.483Z,5.10
2023-02-09T16:33:09.230Z,5.10
2023-02-09T16:36:00.983Z,4.90
2023-02-09T16:38:47.170Z,4.80
2023-02-09T16:41:49.674Z,4.80
2023-02-09T16:44:37.808Z,4.70
2023-02-09T16:47:27.605Z,4.50
2023-02-09T16:50:24.918Z,4.40
2023-02-09T16:53:18.193Z,4.30
2023-02-09T16:56:10.276Z,4.20
2023-02-09T16:58:56.848Z,4.10
2023-02-09T17:01:42.710Z,3.80
2023-02-09T17:04:29.329Z,3.70
2023-02-09T17:07:15.604Z,3.40
2023-02-09T17:10:02.072Z,3.20
2023-02-09T17:12:48.255Z,3.30
2023-02-09T17:15:41.196Z,3.30
2023-02-09T17:18:40.233Z,3.30
2023-02-09T17:21:31.440Z,3.20
2023-02-09T17:24:17.959Z,3.20
2023-02-09T17:27:04.116Z,3.10
2023-02-09T17:29:50.232Z,3.00
2023-02-09T17:32:37.787Z,2.90
2023-02-09T17:35:48.822Z,2.80
2023-02-09T17:38:32.906Z,2.50
2023-02-09T17:41:33.419Z,2.20
2023-02-09T17:44:31.962Z,2.00
2023-02-09T17:47:25.730Z,1.80
2023-02-09T17:50:11.850Z,1.70
2023-02-09T17:52:58.352Z,1.70
2023-02-09T17:55:45.666Z,1.80
2023-02-09T17:58:32.009Z,1.70
2023-02-09T18:01:25.333Z,1.80
2023-02-09T18:04:21.273Z,1.90
2023-02-09T18:07:07.317Z,1.90
2023-02-09T18:09:54.443Z,2.00
2023-02-09T18:12:40.885Z,1.90
2023-02-09T18:15:29.738Z,1.90
2023-02-09T18:18:15.951Z,1.90
2023-02-09T18:21:01.901Z,1.80
2023-02-09T18:23:47.877Z,1.70
2023-02-09T18:26:33.981Z,1.70
2023-02-09T18:29:23.630Z,1.70
2023-02-09T18:32:11.929Z,1.70
2023-02-09T18:34:57.824Z,1.60
2023-02-09T18:37:46.158Z,1.60
2023-02-09T18:40:34.051Z,1.50
2023-02-09T18:43:20.352Z,1.50
2023-02-09T18:46:06.369Z,1.40
2023-02-09T18:48:54.240Z,1.40
2023-02-09T18:51:40.369Z,1.30
2023-02-09T18:54:29.120Z,1.20
2023-02-09T18:57:15.461Z,1.10
2023-02-09T19:00:02.905Z,1.20
2023-02-09T19:02:49.566Z,1.10
2023-02-09T19:05:35.638Z,1.20
2023-02-09T19:08:21.647Z,1.00
2023-02-09T19:11:09.212Z,1.00
2023-02-09T19:14:14.119Z,0.70
2023-02-09T19:17:00.457Z,0.80
2023-02-09T19:19:46.958Z,0.80
2023-02-09T19:22:33.112Z,0.70
2023-02-09T19:25:20.633Z,0.90
2023-02-09T19:28:06.722Z,0.60
2023-02-09T19:30:52.634Z,0.50
2023-02-09T19:33:38.727Z,0.30
2023-02-09T19:36:25.203Z,0.30
2023-02-09T19:39:11.904Z,0.10
2023-02-09T19:41:58.145Z,0.10
2023-02-09T19:44:44.433Z,0.10
2023-02-09T19:47:30.477Z,0.30
2023-02-09T19:50:16.870Z,0.20
2023-02-09T19:53:05.402Z,0.10
2023-02-09T19:55:53.168Z,0.10
2023-02-09T19:58:39.143Z,-0.10
2023-02-09T20:01:26.990Z,-0.10
2023-02-09T20:04:14.541Z,-0.10
2023-02-09T20:07:00.864Z,0.00
2023-02-09T20:09:47.265Z,0.00
2023-02-09T20:12:33.407Z,-0.20
2023-02-09T20:15:19.915Z,-0.30
2023-02-09T20:18:06.265Z,-0.50
2023-02-09T20:20:52.472Z,-0.40
2023-02-09T20:23:38.585Z,-0.20
2023-02-09T20:26:29.710Z,-0.20
2023-02-09T20:29:16.835Z,-0.10
2023-02-09T20:32:04.009Z,-0.10
2023-02-09T20:34:50.332Z,-0.10
2023-02-09T20:37:36.160Z,-0.20
2023-02-09T20:40:22.739Z,-0.20
2023-02-09T20:43:30.157Z,-0.40
2023-02-09T20:47:00.289Z,-0.40
2023-02-09T20:49:46.478Z,-0.50
2023-02-09T20:52:32.780Z,-0.50
2023-02-09T20:55:22.470Z,-0.60
2023-02-09T20:58:11.792Z,-0.70
2023-02-09T21:00:58.530Z,-0.80
2023-02-09T21:03:44.871Z,-0.80
2023-02-09T21:06:30.677Z,-0.90
2023-02-09T21:09:16.826Z,-0.90
2023-02-09T21:12:03.004Z,-0.80
2023-02-09T21:14:50.732Z,-0.70
2023-02-09T21:17:37.044Z,-0.80
2023-02-09T21:20:23.294Z,-0.80
2023-02-09T21:23:09.286Z,-0.90
2023-02-09T21:26:08.331Z,-0.90
2023-02-09T21:28:56.936Z,-0.80
2023-02-09T21:31:44.666Z,-0.70
2023-02-09T21:34:31.299Z,-0.90
2023-02-09T21:37:17.451Z,-0.90
2023-02-09T21:40:04.661Z,-0.90
2023-02-09T21:42:50.933Z,-1.00
2023-02-09T21:45:40.409Z,-1.00
2023-02-09T21:48:26.605Z,-1.20
2023-02-09T21:51:12.573Z,-1.40
2023-02-09T21:53:58.683Z,-1.40
2023-02-09T21:56:45.053Z,-1.20
2023-02-09T21:59:30.960Z,-1.10
2023-02-09T22:02:18.401Z,-1.20
2023-02-09T22:05:05.212Z,-1.10
2023-02-09T22:07:51.668Z,-1.20
2023-02-09T22:10:37.996Z,-1.40
2023-02-09T22:13:23.992Z,-1.50
2023-02-09T22:16:11.082Z,-1.60
2023-02-09T22:18:58.703Z,-1.70
2023-02-09T22:21:44.776Z,-1.70
2023-02-09T22:24:34.707Z,-1.50
2023-02-09T22:27:21.013Z,-1.50
2023-02-09T22:30:07.541Z,-1.50
2023-02-09T22:32:53.368Z,-1.40
2023-02-09T22:35:41.547Z,-1.30
2023-02-09T22:38:27.558Z,-1.20
2023-02-09T22:41:23.274Z,-1.20
2023-02-09T22:44:12.123Z,-1.40
2023-02-09T22:46:58.367Z,-1.50
2023-02-09T22:49:46.642Z,-1.60
2023-02-09T22:52:33.189Z,-1.40
2023-02-09T22:55:19.428Z,-1.20
2023-02-09T22:58:05.410Z,-1.10
2023-02-09T23:00:51.405Z,-1.10
2023-02-09T23:03:37.474Z,-1.20
2023-02-09T23:06:26.957Z,-1.40
2023-02-09T23:09:14.308Z,-1.60
2023-02-09T23:12:00.141Z,-1.70
2023-02-09T23:14:46.440Z,-1.70
2023-02-09T23:17:33.054Z,-1.80
2023-02-09T23:20:19.313Z,-2.00
2023-02-09T23:23:06.649Z,-2.10
2023-02-09T23:25:53.033Z,-1.90
2023-02-09T23:28:39.175Z,-1.70
2023-02-09T23:31:26.850Z,-1.50
2023-02-09T23:34:21.972Z,-1.40
2023-02-09T23:37:18.208Z,-1.50
2023-02-09T23:40:14.584Z,-1.40
2023-02-09T23:43:00.749Z,-1.40
2023-02-09T23:45:46.851Z,-1.40
2023-02-09T23:48:33.894Z,-1.40
2023-02-09T23:51:24.352Z,-1.40
2023-02-09T23:54:10.685Z,-1.60
2023-02-09T23:56:56.984Z,-1.60
2023-02-09T23:59:43.355Z,-1.50
